Latest Weather Observations for Cape Jaffa

IDS60801

Issued at 11:31 am CST Sunday 2 August 2015 (issued every 30 minutes, with the page automatically refreshed every 10 minutes)

About weather observations | Map of weather stations | Latest weather observations for SA | Other Formats
Station Details ID: 026095 Name: THE LIMESTONE Lat: -36.97 Lon: 139.72 Height: 17.0 m
Data from the previous 72 hours. | See also: Recent months at Cape Jaffa
Date/Time
CST
Temp
°C
App
Temp
°C
Dew
Point
Rel
Hum
%
Delta-T
°C
Wind Press
QNH
hPa
Press
MSL
hPa
Rain
since 9 am
mm
Dir
 
Spd
km/h
Gust
km/h
Spd
kts
Gust
kts
02/11:30am 13.2 4.9 7.6 69 2.7 WNW 41 52 22 28 1014.9 1014.9 0.0
02/11:00am 12.8 4.4 7.3 69 2.7 W 41 56 22 30 1015.2 1015.2 0.0
02/10:30am 12.7 4.4 7.8 72 2.4 W 41 57 22 31 1015.3 1015.3 0.0
02/10:00am 11.0 1.6 7.3 78 1.8 W 46 67 25 36 1015.2 1015.2 0.0
02/09:57am 12.1 3.3 7.4 73 2.3 W 43 67 23 36 1015.0 1015.0 0.0
02/09:30am 12.6 4.9 7.1 69 2.7 WNW 37 48 20 26 1015.0 1015.0 0.0
02/09:00am 11.7 3.8 6.4 70 2.5 WNW 37 48 20 26 1015.1 1015.1 0.8
02/08:32am 10.5 3.0 6.5 76 1.9 W 35 54 19 29 1015.3 1015.3 0.8
02/08:30am 10.3 2.5 6.6 78 1.7 W 37 54 20 29 1015.3 1015.3 0.8
02/08:20am 11.5 4.7 7.0 74 2.1 WNW 32 54 17 29 1015.3 1015.3 0.8
02/08:00am 9.9 3.8 6.4 79 1.6 W 28 39 15 21 1015.1 1015.1 0.8
02/07:56am 9.6 2.4 6.0 78 1.7 W 33 54 18 29 1015.1 1015.1 0.8
02/07:30am 10.6 4.0 6.2 74 2.0 W 30 46 16 25 1015.1 1015.1 0.4
02/07:00am 9.8 3.4 5.0 72 2.2 WNW 28 37 15 20 1014.9 1014.9 0.4
02/06:30am 10.1 5.1 6.3 77 1.8 W 22 32 12 17 1014.7 1014.7 0.4
02/06:03am 9.2 1.6 5.8 79 1.6 W 35 54 19 29 1014.7 1014.7 0.4
02/06:00am 9.1 1.1 5.8 80 1.5 W 37 54 20 29 1014.8 1014.8 0.4
02/05:55am 9.6 2.4 6.1 79 1.6 W 33 54 18 29 1014.6 1014.6 0.4
02/05:30am 9.9 3.0 4.7 70 2.3 W 30 41 16 22 1014.6 1014.6 0.4
02/05:00am 10.0 4.4 5.6 74 2.0 W 24 32 13 17 1014.7 1014.7 0.4
02/04:30am 9.4 3.3 4.6 72 2.1 W 26 35 14 19 1014.9 1014.9 0.4
02/04:00am 9.4 3.0 5.0 74 2.0 W 28 35 15 19 1015.1 1015.1 0.4
02/03:30am 9.3 4.0 4.9 74 2.0 WNW 22 28 12 15 1015.3 1015.3 0.4
02/03:00am 9.3 3.6 5.1 75 1.9 WSW 24 37 13 20 1015.7 1015.7 0.4
02/02:46am 9.2 2.8 5.2 76 1.8 W 28 46 15 25 1015.6 1015.6 0.4
02/02:30am 8.7 4.2 4.3 74 1.9 W 17 20 9 11 1015.8 1015.8 0.4
02/02:00am 8.5 5.0 5.6 82 1.3 WNW 13 35 7 19 1016.1 1016.1 0.4
02/01:30am 8.6 2.4 6.1 84 1.1 W 28 39 15 21 1016.5 1016.5 0.4
02/01:00am 10.0 5.3 5.2 72 2.2 WNW 19 33 10 18 1016.2 1016.2 0.0
02/12:30am 10.1 3.8 3.8 65 2.8 W 26 35 14 19 1016.4 1016.4 0.0
02/12:00am 9.8 3.2 4.0 67 2.5 W 28 39 15 21 1016.6 1016.6 0.0
 
Date/Time
CST
Temp
°C
App
Temp
°C
Dew
Point
Rel
Hum
%
Delta-T
°C
Wind Press
QNH
hPa
Press
MSL
hPa
Rain
since 9 am
mm
Dir
 
Spd
km/h
Gust
km/h
Spd
kts
Gust
kts
01/11:30pm 10.4 5.7 3.0 60 3.2 WNW 17 24 9 13 1016.6 1016.6 0.0
01/11:00pm 9.7 4.5 2.3 60 3.1 W 19 24 10 13 1016.8 1016.8 0.0
01/10:30pm 10.2 5.1 3.0 61 3.1 W 19 22 10 12 1016.9 1016.9 0.0
01/10:00pm 10.0 6.6 4.0 66 2.6 WNW 11 13 6 7 1017.1 1017.1 0.0
01/09:30pm 9.8 6.3 3.3 64 2.8 WNW 11 13 6 7 1017.1 1017.1 0.0
01/09:00pm 9.8 6.6 3.1 63 2.9 WNW 9 9 5 5 1017.1 1017.1 0.0
01/08:30pm 9.4 6.2 3.2 65 2.7 WNW 9 11 5 6 1016.9 1016.9 0.0
01/08:00pm 9.6 6.9 3.6 66 2.6 WNW 7 9 4 5 1016.9 1016.9 0.0
01/07:30pm 9.6 6.9 3.8 67 2.5 WNW 7 11 4 6 1016.8 1016.8 0.0
01/07:00pm 9.4 6.6 3.2 65 2.7 WNW 7 9 4 5 1016.9 1016.9 0.0
01/06:30pm 9.0 6.3 3.6 69 2.3 W 7 9 4 5 1016.5 1016.5 0.0
01/06:00pm 9.0 6.3 3.6 69 2.3 W 7 11 4 6 1016.4 1016.4 0.0
01/05:30pm 9.3 6.6 3.9 69 2.4 WSW 7 9 4 5 1016.1 1016.1 0.0
01/05:00pm 9.5 7.1 4.3 70 2.3 WSW 6 9 3 5 1016.1 1016.1 0.0
01/04:30pm 10.1 7.1 4.3 67 2.6 W 9 13 5 7 1016.1 1016.1 0.0
01/04:00pm 10.6 8.0 4.1 64 2.9 W 7 9 4 5 1016.0 1016.0 0.0
01/03:30pm 10.8 8.2 3.4 60 3.2 W 6 6 3 3 1015.8 1015.8 0.0
01/03:00pm 10.9 8.2 2.5 56 3.6 SW 6 7 3 4 1016.1 1016.1 0.0
01/02:30pm 11.3 8.3 2.3 54 3.9 W 7 11 4 6 1015.9 1015.9 0.0
01/02:00pm 11.6 8.9 2.4 53 4.0 SW 6 9 3 5 1015.9 1015.9 0.0
01/01:30pm 11.0 7.8 2.8 57 3.5 SW 9 13 5 7 1016.0 1016.0 0.0
01/01:00pm 11.0 7.1 1.3 51 4.1 SW 11 15 6 8 1016.5 1016.5 0.0
01/12:30pm 10.9 6.0 2.0 54 3.8 SSW 17 20 9 11 1016.6 1016.6 0.0
01/12:00pm 11.5 6.9 3.8 59 3.4 SSW 17 19 9 10 1016.7 1016.7 0.0
01/11:30am 11.1 5.9 2.7 56 3.6 SSW 19 20 10 11 1016.7 1016.7 0.0
01/11:00am 10.9 5.8 3.2 59 3.4 SSW 19 24 10 13 1016.6 1016.6 0.0
01/10:30am 10.9 5.6 3.0 58 3.4 SSW 20 28 11 15 1016.5 1016.5 0.0
01/10:00am 10.5 5.2 2.8 59 3.3 SSW 20 26 11 14 1016.3 1016.3 0.0
01/09:30am 10.2 5.2 3.7 64 2.8 SSW 19 24 10 13 1016.0 1016.0 0.0
01/09:00am 9.7 3.5 2.3 60 3.1 SSW 24 33 13 18 1016.0 1016.0 2.0
01/08:30am 9.8 3.8 3.5 65 2.7 SW 24 33 13 18 1015.7 1015.7 2.0
01/08:00am 9.5 2.6 2.6 62 2.9 SSW 28 35 15 19 1015.1 1015.1 2.0
01/07:30am 9.9 3.3 4.1 67 2.6 SW 28 35 15 19 1014.5 1014.5 2.0
01/07:00am 10.0 3.2 5.2 72 2.2 SSW 30 41 16 22 1013.5 1013.5 2.0
01/06:30am 10.5 4.9 5.5 71 2.3 SW 24 33 13 18 1013.1 1013.1 2.0
01/06:00am 10.5 4.1 5.1 69 2.5 SW 28 37 15 20 1012.7 1012.7 2.0
01/05:30am 10.4 2.7 5.4 71 2.3 SW 35 44 19 24 1012.2 1012.2 2.0
01/05:00am 10.5 3.0 6.5 76 1.9 SSW 35 44 19 24 1011.6 1011.6 2.0
01/04:30am 10.4 2.4 7.3 81 1.5 SSW 39 52 21 28 1010.9 1010.9 2.0
01/04:00am 10.5 3.0 7.9 84 1.3 SW 37 48 20 26 1010.6 1010.6 2.0
01/03:30am 10.3 3.0 8.7 90 0.8 SW 37 46 20 25 1010.0 1010.0 2.0
01/03:00am 10.8 3.3 9.4 91 0.7 SW 39 54 21 29 1009.7 1009.7 1.8
01/02:50am 11.0 4.7 9.6 91 0.7 WSW 33 52 18 28 1009.6 1009.6 1.8
01/02:30am 11.1 6.1 9.7 91 0.7 SW 26 35 14 19 1009.8 1009.8 1.2
01/02:00am 12.0 7.2 10.4 90 0.8 NNW 26 32 14 17 1009.1 1009.1 0.0
01/01:30am 12.0 7.5 9.9 87 1.1 NNW 24 32 13 17 1008.9 1008.9 0.0
01/01:00am 13.0 7.0 10.0 82 1.5 NNW 32 50 17 27 1009.0 1009.0 0.0
01/12:30am 12.4 7.0 9.4 82 1.5 N 28 35 15 19 1009.1 1009.1 0.0
01/12:00am 12.2 6.3 9.0 81 1.6 N 30 39 16 21 1009.3 1009.3 0.0
 
Date/Time
CST
Temp
°C
App
Temp
°C
Dew
Point
Rel
Hum
%
Delta-T
°C
Wind Press
QNH
hPa
Press
MSL
hPa
Rain
since 9 am
mm
Dir
 
Spd
km/h
Gust
km/h
Spd
kts
Gust
kts
31/11:30pm 12.2 5.7 8.9 80 1.7 N 33 41 18 22 1009.6 1009.6 0.0
31/11:00pm 11.8 6.2 8.6 81 1.6 N 28 37 15 20 1010.2 1010.2 0.0
31/10:30pm 11.6 5.5 8.3 80 1.6 N 30 35 16 19 1010.5 1010.5 0.0
31/10:00pm 11.4 4.8 7.9 79 1.7 N 32 39 17 21 1010.9 1010.9 0.0
31/09:30pm 11.4 5.2 7.9 79 1.7 N 30 37 16 20 1011.4 1011.4 0.0
31/09:00pm 10.8 5.8 7.9 82 1.4 N 24 30 13 16 1011.8 1011.8 0.0
31/08:30pm 11.1 6.2 8.3 83 1.4 N 24 30 13 16 1012.2 1012.2 0.0
31/08:00pm 11.1 6.2 8.5 84 1.3 N 24 30 13 16 1012.4 1012.4 0.0
31/07:30pm 10.9 6.8 8.5 85 1.2 N 20 26 11 14 1012.5 1012.5 0.0
31/07:00pm 11.1 7.0 7.8 80 1.6 N 19 24 10 13 1013.2 1013.2 0.0
31/06:30pm 11.2 6.9 7.9 80 1.6 N 20 26 11 14 1013.4 1013.4 0.0
31/06:00pm 11.1 6.0 7.6 79 1.7 N 24 30 13 16 1013.3 1013.3 0.0
31/05:30pm 11.0 5.5 7.5 79 1.7 N 26 33 14 18 1013.8 1013.8 0.0
31/05:00pm 10.8 5.5 6.9 77 1.8 N 24 32 13 17 1014.0 1014.0 0.0
31/04:30pm 10.9 5.1 6.1 72 2.2 NNW 26 35 14 19 1014.8 1014.8 0.0
31/04:00pm 10.9 3.8 5.4 69 2.5 NNW 32 39 17 21 1015.2 1015.2 0.0
31/03:30pm 10.9 3.5 5.0 67 2.7 NNW 33 43 18 23 1015.4 1015.4 0.0
31/03:00pm 10.8 3.0 5.1 68 2.6 NNW 35 48 19 26 1015.6 1015.6 0.0
31/02:30pm 10.9 3.5 5.0 67 2.7 N 33 46 18 25 1015.3 1015.3 0.0
31/02:00pm 11.3 3.6 5.2 66 2.8 N 35 43 19 23 1015.6 1015.6 0.0
31/01:30pm 11.2 3.9 4.4 63 3.1 N 32 43 17 23 1016.3 1016.3 0.0
31/01:00pm 10.9 3.7 5.0 67 2.7 N 32 39 17 21 1017.1 1017.1 0.0
31/12:30pm 11.3 4.4 4.7 64 3.0 N 30 39 16 21 1017.7 1017.7 0.0
31/12:00pm 10.9 4.6 3.9 62 3.1 N 26 33 14 18 1018.4 1018.4 0.0
31/11:30am 11.2 5.1 4.9 65 2.9 N 26 33 14 18 1019.1 1019.1 0.0
31/11:00am 10.8 5.2 5.3 69 2.5 N 24 30 13 16 1019.6 1019.6 0.0
31/10:30am 10.7 4.7 3.3 60 3.2 N 24 32 13 17 1020.2 1020.2 0.0
31/10:00am 10.9 5.9 3.7 61 3.2 NNW 19 28 10 15 1020.4 1020.4 0.0
31/09:30am 10.6 5.7 3.9 63 3.0 N 19 26 10 14 1020.7 1020.7 0.0
31/09:00am 10.2 5.6 3.5 63 2.9 NNW 17 24 9 13 1020.9 1020.9 0.4
31/08:30am 10.1 5.5 3.6 64 2.8 N 17 24 9 13 1020.9 1020.9 0.4
31/08:00am 9.5 5.6 3.5 66 2.6 N 13 20 7 11 1020.9 1020.9 0.4
31/07:30am 8.4 5.6 3.1 69 2.2 N 7 9 4 5 1020.9 1020.9 0.4
31/07:00am 8.1 5.2 2.6 68 2.3 N 7 11 4 6 1020.7 1020.7 0.4
31/06:30am 9.1 5.8 2.2 62 2.9 NW 9 11 5 6 1020.7 1020.7 0.4
31/06:00am 8.7 5.3 1.6 61 2.9 NW 9 17 5 9 1020.6 1020.6 0.4
31/05:30am 8.6 5.7 1.7 62 2.8 NW 6 9 3 5 1020.9 1020.9 0.4
31/05:00am 8.1 5.6 1.5 63 2.7 W 4 6 2 3 1020.7 1020.7 0.4
31/04:30am 7.8 4.2 0.3 59 3.0 NW 9 13 5 7 1020.7 1020.7 0.4
31/04:00am 7.4 4.2 0.6 62 2.7 W 7 9 4 5 1020.6 1020.6 0.4
31/03:30am 7.6 4.5 1.2 64 2.6 W 7 13 4 7 1020.6 1020.6 0.4
31/03:00am 8.4 4.3 2.0 64 2.6 WSW 13 17 7 9 1020.9 1020.9 0.4
31/02:30am 9.6 5.4 1.8 58 3.2 WSW 13 20 7 11 1021.1 1021.1 0.4
31/02:00am 9.3 6.1 3.1 65 2.7 SW 9 15 5 8 1021.4 1021.4 0.4
31/01:30am 9.4 6.4 1.1 56 3.4 NW 6 7 3 4 1021.2 1021.2 0.4
31/01:00am 8.7 4.4 1.1 59 3.1 WSW 13 17 7 9 1021.2 1021.2 0.4
31/12:30am 9.1 5.4 2.4 63 2.8 SSW 11 15 6 8 1021.4 1021.4 0.4
31/12:00am 10.1 5.8 1.2 54 3.7 SW 13 20 7 11 1021.6 1021.6 0.4
 
Date/Time
CST
Temp
°C
App
Temp
°C
Dew
Point
Rel
Hum
%
Delta-T
°C
Wind Press
QNH
hPa
Press
MSL
hPa
Rain
since 9 am
mm
Dir
 
Spd
km/h
Gust
km/h
Spd
kts
Gust
kts
30/11:30pm 10.2 6.1 2.1 57 3.4 SW 13 24 7 13 1021.4 1021.4 0.4
30/11:00pm 10.1 6.0 4.3 67 2.6 SW 15 19 8 10 1021.3 1021.3 0.4
30/10:30pm 9.2 4.3 2.1 61 3.0 SW 17 22 9 12 1021.1 1021.1 0.4
30/10:00pm 9.6 5.1 4.2 69 2.4 S 17 24 9 13 1020.8 1020.8 0.4
30/09:30pm 9.2 3.8 2.3 62 2.9 SW 20 28 11 15 1020.7 1020.7 0.4
30/09:00pm 9.4 3.8 3.4 66 2.6 SSW 22 28 12 15 1020.2 1020.2 0.4
30/08:30pm 10.0 2.7 2.6 60 3.1 SW 30 39 16 21 1019.8 1019.8 0.4
30/08:00pm 10.2 3.7 4.8 69 2.4 SW 28 35 15 19 1019.3 1019.3 0.4
30/07:30pm 10.1 2.5 2.9 61 3.1 SW 32 43 17 23 1018.9 1018.9 0.4
30/07:00pm 10.8 3.5 4.5 65 2.8 SW 32 41 17 22 1018.3 1018.3 0.4
30/06:30pm 10.8 3.3 4.5 65 2.8 SW 33 46 18 25 1017.9 1017.9 0.4
30/06:00pm 11.2 2.9 5.9 70 2.5 SW 39 50 21 27 1017.0 1017.0 0.4
30/05:30pm 11.1 4.0 6.6 74 2.1 SW 33 44 18 24 1016.1 1016.1 0.4
30/05:00pm 10.9 3.4 8.1 83 1.4 SW 37 50 20 27 1015.8 1015.8 0.4
30/04:30pm 11.3 4.0 8.9 85 1.2 WSW 37 48 20 26 1015.0 1015.0 0.4
30/04:15pm 11.4 3.9 9.3 87 1.1 WSW 39 59 21 32 1014.9 1014.9 0.4
30/04:00pm 11.8 3.3 9.2 84 1.3 SW 44 56 24 30 1014.3 1014.3 0.4
30/03:32pm 12.9 5.6 10.3 84 1.3 WNW 39 72 21 39 1013.5 1013.5 0.4
30/03:30pm 13.7 7.7 10.7 82 1.6 WNW 33 61 18 33 1013.5 1013.5 0.4
30/03:00pm 14.8 10.1 12.1 84 1.5 WNW 28 39 15 21 1013.1 1013.1 0.4
30/02:30pm 13.8 9.4 11.8 88 1.1 NW 26 35 14 19 1013.4 1013.4 0.4
30/02:00pm 12.2 6.6 10.3 88 1.0 NW 30 41 16 22 1013.4 1013.4 0.4
30/01:30pm 13.5 6.7 9.4 76 2.1 NW 35 44 19 24 1013.3 1013.3 0.2
30/01:00pm 13.0 4.9 8.7 75 2.2 NW 41 63 22 34 1013.5 1013.5 0.2
30/12:56pm 13.3 6.0 8.6 73 2.4 NW 37 63 20 34 1013.5 1013.5 0.2
30/12:30pm 13.3 5.6 8.6 73 2.4 NNW 39 52 21 28 1013.4 1013.4 0.2
30/12:00pm 12.7 5.3 8.2 74 2.2 NNW 37 50 20 27 1013.9 1013.9 0.2

Other Formats:

Comma delimited format used in spreadsheet applications
http://www.bom.gov.au/fwo/IDS60801/IDS60801.94813.axf

JavaScript Object Notation format (JSON) in row-major order
http://www.bom.gov.au/fwo/IDS60801/IDS60801.94813.json